Time;durP1;ratioP1;P1;durP2;ratioP2;P2;SDS_P1;SDS_P2;PMS_P1;PMS_P2;Temp;Humidity;BMP_temperature;BMP_pressure;BME280_temperature;BME280_humidity;BME280_pressure;Samples;Min_cycle;Max_cycle;Signal;HPM_P1;HPM_P2
2024/02/07 00:00:08;;;;;;;10.47;2.50;;;8.20;99.90;;;;;;5064128;28;20447;-68
2024/02/07 00:02:38;;;;;;;7.80;2.00;;;8.10;99.90;;;;;;5029218;28;20474;-68
2024/02/07 00:05:07;;;;;;;7.53;1.70;;;8.10;99.90;;;;;;5062910;28;20505;-68
2024/02/07 00:07:37;;;;;;;7.23;1.67;;;8.10;99.90;;;;;;5063976;28;20910;-68
2024/02/07 00:10:07;;;;;;;7.90;1.93;;;8.20;99.90;;;;;;5061138;28;20466;-70
2024/02/07 00:12:35;;;;;;;7.17;1.93;;;8.20;99.90;;;;;;5066734;28;20454;-70
2024/02/07 00:15:04;;;;;;;7.83;2.13;;;8.20;99.90;;;;;;5067581;28;20443;-68
2024/02/07 00:17:32;;;;;;;7.30;1.77;;;8.20;99.90;;;;;;5069106;28;20447;-69
2024/02/07 00:20:00;;;;;;;9.57;1.90;;;8.20;99.90;;;;;;5068673;28;20534;-69
2024/02/07 00:22:28;;;;;;;7.17;1.60;;;8.20;99.90;;;;;;5066659;28;20472;-69
2024/02/07 00:24:57;;;;;;;7.13;1.47;;;8.20;99.90;;;;;;5066030;28;20482;-69
2024/02/07 00:27:25;;;;;;;7.53;2.00;;;8.20;99.90;;;;;;5066682;28;20444;-69
2024/02/07 00:29:53;;;;;;;8.10;1.80;;;8.10;99.90;;;;;;5066133;28;20446;-69
2024/02/07 00:32:21;;;;;;;7.47;1.60;;;8.00;99.90;;;;;;5066450;28;20542;-68
2024/02/07 00:34:49;;;;;;;8.27;1.97;;;8.00;99.90;;;;;;5065732;28;20461;-68
2024/02/07 00:37:17;;;;;;;8.13;1.67;;;8.00;99.90;;;;;;5066632;28;20443;-68
2024/02/07 00:39:45;;;;;;;9.27;2.10;;;7.90;99.90;;;;;;5067151;28;20479;-68
2024/02/07 00:42:14;;;;;;;8.10;1.80;;;7.80;99.90;;;;;;5066202;28;20470;-69
2024/02/07 00:44:42;;;;;;;8.00;1.83;;;7.70;99.90;;;;;;5066627;28;20443;-68
2024/02/07 00:47:11;;;;;;;8.83;1.53;;;7.70;99.90;;;;;;5067042;28;20486;-69
2024/02/07 00:49:38;;;;;;;7.30;1.50;;;7.70;99.90;;;;;;5066831;28;20998;-68
2024/02/07 00:52:07;;;;;;;8.60;1.70;;;7.80;99.90;;;;;;5064623;28;21146;-67
2024/02/07 00:54:35;;;;;;;8.97;2.30;;;7.90;99.90;;;;;;5067340;28;20562;-69
2024/02/07 00:57:03;;;;;;;9.13;1.90;;;7.90;99.90;;;;;;5067496;28;20929;-67
2024/02/07 00:59:32;;;;;;;7.07;1.67;;;7.90;99.90;;;;;;5067623;28;20964;-67
2024/02/07 01:02:00;;;;;;;7.23;1.20;;;7.90;99.90;;;;;;5067181;28;20582;-68
2024/02/07 01:04:28;;;;;;;9.70;1.80;;;7.90;99.90;;;;;;5067516;28;20451;-69
2024/02/07 01:06:56;;;;;;;7.50;1.80;;;8.00;99.90;;;;;;5067787;28;20494;-69
2024/02/07 01:09:26;;;;;;;8.73;2.60;;;8.00;99.90;;;;;;5068101;28;20889;-69
2024/02/07 01:11:57;;;;;;;8.63;2.07;;;8.00;99.90;;;;;;5066653;28;20513;-68
2024/02/07 01:14:26;;;;;;;8.07;1.83;;;8.00;99.90;;;;;;5067613;28;21370;-69
2024/02/07 01:16:55;;;;;;;7.10;1.53;;;8.00;99.90;;;;;;5067661;28;20439;-68
2024/02/07 01:19:24;;;;;;;7.30;1.67;;;8.10;99.90;;;;;;5067198;28;20466;-69
2024/02/07 01:21:52;;;;;;;8.83;2.13;;;8.00;99.90;;;;;;5065356;28;20546;-70
2024/02/07 01:24:20;;;;;;;7.10;1.77;;;8.00;99.90;;;;;;5066438;28;20577;-68
2024/02/07 01:26:48;;;;;;;8.63;1.87;;;8.10;99.90;;;;;;5066792;28;20483;-68
2024/02/07 01:29:16;;;;;;;9.00;1.77;;;8.00;99.90;;;;;;5066745;28;20446;-68
2024/02/07 01:31:44;;;;;;;8.40;2.20;;;7.90;99.90;;;;;;5065633;28;20540;-68
2024/02/07 01:34:14;;;;;;;8.57;2.10;;;8.00;99.90;;;;;;5066265;28;20452;-68
2024/02/07 01:36:46;;;;;;;9.90;2.17;;;7.90;99.90;;;;;;5066552;28;20444;-66
2024/02/07 01:39:16;;;;;;;8.60;1.90;;;7.90;99.90;;;;;;5066394;28;20509;-69
2024/02/07 01:41:59;;;;;;;9.10;2.70;;;8.00;99.90;;;;;;5065153;28;21137;-69
2024/02/07 01:44:29;;;;;;;7.40;2.00;;;7.90;99.90;;;;;;5066109;28;20462;-68
2024/02/07 01:47:14;;;;;;;8.50;2.17;;;7.80;99.90;;;;;;5066412;28;20493;-69
2024/02/07 01:49:48;;;;;;;7.90;2.40;;;7.80;99.90;;;;;;5065834;28;20550;-67
2024/02/07 01:52:18;;;;;;;7.90;2.00;;;7.80;99.90;;;;;;5061417;28;21160;-68
2024/02/07 01:54:46;;;;;;;7.97;2.33;;;7.80;99.90;;;;;;5066597;28;20430;-68
2024/02/07 01:57:14;;;;;;;8.83;1.80;;;7.80;99.90;;;;;;5067580;28;20470;-68
2024/02/07 01:59:43;;;;;;;9.00;1.70;;;7.80;99.90;;;;;;5067459;28;20453;-67
2024/02/07 02:02:11;;;;;;;7.53;1.80;;;7.80;99.90;;;;;;5066176;28;20577;-68
2024/02/07 02:04:40;;;;;;;8.60;2.40;;;7.80;99.90;;;;;;5066724;28;21002;-69
2024/02/07 02:07:09;;;;;;;8.43;2.20;;;7.90;99.90;;;;;;5067186;28;20490;-68
2024/02/07 02:09:39;;;;;;;11.70;2.00;;;7.90;99.90;;;;;;5067154;28;20845;-69
2024/02/07 02:12:08;;;;;;;8.60;3.10;;;7.90;99.90;;;;;;5066013;28;20838;-67
2024/02/07 02:14:36;;;;;;;8.10;2.37;;;7.90;99.90;;;;;;5066500;28;20558;-68
2024/02/07 02:17:05;;;;;;;7.77;2.33;;;7.90;99.90;;;;;;5066868;28;20435;-69
2024/02/07 02:19:33;;;;;;;9.03;2.20;;;7.90;99.90;;;;;;5067347;28;20839;-68
2024/02/07 02:22:22;;;;;;;8.07;1.80;;;7.90;99.90;;;;;;5066010;28;20464;-68
2024/02/07 02:25:07;;;;;;;8.03;1.70;;;7.90;99.90;;;;;;5066288;28;20481;-70
2024/02/07 02:27:51;;;;;;;7.70;1.90;;;7.90;99.90;;;;;;5066519;28;20483;-68
2024/02/07 02:30:33;;;;;;;13.00;2.30;;;8.00;99.90;;;;;;5066420;28;20467;-67
2024/02/07 02:33:08;;;;;;;8.80;2.07;;;8.00;99.90;;;;;;5066114;28;20566;-68
2024/02/07 02:35:39;;;;;;;8.40;3.20;;;7.90;99.90;;;;;;5065669;28;20477;-68
2024/02/07 02:38:07;;;;;;;9.00;2.10;;;7.80;99.90;;;;;;5065602;28;20465;-68
2024/02/07 02:40:35;;;;;;;8.13;2.17;;;7.80;99.90;;;;;;5065252;28;20471;-68
2024/02/07 02:43:03;;;;;;;8.83;2.33;;;7.80;99.90;;;;;;5065477;28;20463;-68
2024/02/07 02:45:33;;;;;;;10.73;2.27;;;7.70;99.90;;;;;;5065463;28;20468;-70
2024/02/07 02:48:01;;;;;;;7.50;1.83;;;7.80;99.90;;;;;;5065431;28;20487;-69
2024/02/07 02:50:30;;;;;;;9.37;2.20;;;7.80;99.90;;;;;;5064506;28;20520;-67
2024/02/07 02:52:58;;;;;;;8.67;3.20;;;7.80;99.90;;;;;;5067345;28;20463;-68
2024/02/07 02:55:27;;;;;;;7.40;1.80;;;7.70;99.90;;;;;;5065823;28;20917;-69
2024/02/07 02:58:00;;;;;;;8.70;2.10;;;7.80;99.90;;;;;;5069434;28;20467;-70
2024/02/07 03:00:30;;;;;;;8.60;2.20;;;7.80;99.90;;;;;;5068241;28;20468;-66
2024/02/07 03:02:59;;;;;;;11.90;2.07;;;7.90;99.90;;;;;;5062446;28;20443;-68
2024/02/07 03:05:45;;;;;;;8.30;1.97;;;7.90;99.90;;;;;;5069569;28;20454;-68
2024/02/07 03:08:21;;;;;;;9.50;2.00;;;7.80;99.90;;;;;;5059731;28;20882;-68
2024/02/07 03:10:53;;;;;;;7.40;1.80;;;7.90;99.90;;;;;;5069742;28;20497;-68
2024/02/07 03:13:22;;;;;;;7.80;1.93;;;7.90;99.90;;;;;;5068693;28;20569;-70
2024/02/07 03:15:50;;;;;;;8.47;2.07;;;7.90;99.90;;;;;;5068776;28;20475;-68
2024/02/07 03:18:20;;;;;;;9.00;2.00;;;7.90;99.90;;;;;;5069643;28;20835;-69
2024/02/07 03:20:49;;;;;;;7.60;1.97;;;7.90;99.90;;;;;;5068021;28;20467;-68
2024/02/07 03:23:18;;;;;;;8.93;1.93;;;8.00;99.90;;;;;;5068420;28;21047;-66
2024/02/07 03:25:46;;;;;;;8.40;1.93;;;8.00;99.90;;;;;;5068625;28;20462;-68
2024/02/07 03:28:16;;;;;;;8.30;1.87;;;8.00;99.90;;;;;;5068971;28;20493;-68
2024/02/07 03:30:44;;;;;;;7.50;1.70;;;8.00;99.90;;;;;;5068090;28;20469;-68
2024/02/07 03:33:12;;;;;;;7.40;1.87;;;8.10;99.90;;;;;;5068455;28;20477;-68
2024/02/07 03:35:43;;;;;;;7.57;2.10;;;8.20;99.90;;;;;;5068791;28;20579;-68
2024/02/07 03:38:11;;;;;;;8.97;1.83;;;8.30;99.90;;;;;;5068643;28;20474;-68
2024/02/07 03:40:39;;;;;;;8.17;2.30;;;8.30;99.90;;;;;;5067432;28;20855;-69
2024/02/07 03:43:09;;;;;;;10.10;2.07;;;8.30;99.90;;;;;;5067542;28;20562;-69
2024/02/07 03:45:37;;;;;;;7.73;1.73;;;8.30;99.90;;;;;;5068999;28;20542;-68
2024/02/07 03:48:12;;;;;;;6.93;1.70;;;8.30;99.90;;;;;;5068474;28;20486;-68
2024/02/07 03:50:41;;;;;;;7.77;1.83;;;8.30;99.90;;;;;;5067669;28;20498;-69
2024/02/07 03:53:10;;;;;;;12.20;2.50;;;8.40;99.90;;;;;;5068468;28;20471;-68
2024/02/07 03:55:38;;;;;;;7.93;1.97;;;8.30;99.90;;;;;;5068043;28;20558;-69
2024/02/07 03:58:07;;;;;;;7.53;1.77;;;8.30;99.90;;;;;;5068312;28;20478;-69
2024/02/07 04:00:35;;;;;;;7.87;1.97;;;8.30;99.90;;;;;;5066980;28;20528;-68
2024/02/07 04:03:03;;;;;;;9.23;2.57;;;8.40;99.90;;;;;;5068256;28;20460;-68
2024/02/07 04:05:37;;;;;;;8.87;2.30;;;8.30;99.90;;;;;;5067861;28;20470;-68
2024/02/07 04:08:08;;;;;;;7.60;1.90;;;8.30;99.90;;;;;;5068498;28;20578;-68
2024/02/07 04:10:41;;;;;;;7.20;1.87;;;8.40;99.90;;;;;;5067452;28;20467;-69
2024/02/07 05:16:28;;;;;;;8.67;1.63;;;8.90;99.90;;;;;;5066967;28;20545;-68
2024/02/07 05:18:56;;;;;;;7.97;1.60;;;8.90;99.90;;;;;;5066878;28;20560;-68
2024/02/07 05:21:24;;;;;;;7.13;1.37;;;8.90;99.90;;;;;;5066970;28;20524;-68
2024/02/07 05:23:53;;;;;;;6.80;1.30;;;8.90;99.90;;;;;;5067209;28;20492;-68
2024/02/07 05:26:21;;;;;;;7.20;1.40;;;8.90;99.90;;;;;;5067490;28;20546;-69
2024/02/07 05:28:51;;;;;;;6.90;1.33;;;9.00;99.90;;;;;;5067272;28;20495;-68
2024/02/07 05:31:19;;;;;;;11.33;2.00;;;8.90;99.90;;;;;;5065424;28;20480;-67
2024/02/07 05:33:47;;;;;;;6.37;1.10;;;9.00;99.90;;;;;;5066201;28;20472;-68
2024/02/07 05:36:15;;;;;;;8.43;2.07;;;8.90;99.90;;;;;;5066532;28;20505;-66
2024/02/07 05:38:43;;;;;;;7.47;1.27;;;8.90;99.90;;;;;;5066176;28;20974;-66
2024/02/07 05:41:11;;;;;;;6.70;1.50;;;8.90;99.90;;;;;;5064690;28;20546;-66
2024/02/07 05:43:39;;;;;;;8.13;1.90;;;9.00;99.90;;;;;;5065505;28;20888;-68
2024/02/07 05:46:08;;;;;;;7.50;1.70;;;9.00;99.90;;;;;;5065833;28;20447;-68
2024/02/07 05:48:39;;;;;;;7.07;1.63;;;8.90;99.90;;;;;;5065936;28;20486;-69
2024/02/07 05:51:07;;;;;;;7.40;1.90;;;9.00;99.90;;;;;;5064485;28;21056;-68
2024/02/07 05:53:35;;;;;;;9.20;1.90;;;9.00;99.90;;;;;;5065774;28;20848;-69
2024/02/07 05:56:03;;;;;;;8.37;1.63;;;9.00;99.90;;;;;;5065820;28;20463;-68
2024/02/07 05:58:39;;;;;;;8.50;2.10;;;9.00;99.90;;;;;;5067361;28;20516;-68
2024/02/07 06:01:10;;;;;;;7.17;1.90;;;8.90;99.90;;;;;;5058636;28;21089;-68
2024/02/07 06:03:38;;;;;;;7.50;1.80;;;8.90;99.90;;;;;;5066517;28;20496;-68
2024/02/07 06:06:07;;;;;;;9.50;2.43;;;8.90;99.90;;;;;;5064483;28;20464;-67
2024/02/07 06:08:35;;;;;;;7.20;1.70;;;8.90;99.90;;;;;;5067231;28;20618;-68
2024/02/07 06:11:05;;;;;;;9.27;2.50;;;8.80;99.90;;;;;;5060220;28;20491;-68
2024/02/07 06:13:33;;;;;;;8.53;1.80;;;8.80;99.90;;;;;;5065663;28;20868;-68
2024/02/07 06:16:01;;;;;;;7.53;1.80;;;8.80;99.90;;;;;;5062770;28;20481;-66
2024/02/07 06:18:30;;;;;;;9.30;1.73;;;8.80;99.90;;;;;;5062970;28;20453;-68
2024/02/07 06:20:58;;;;;;;8.00;2.10;;;8.90;99.90;;;;;;5055341;28;20478;-68
2024/02/07 06:23:26;;;;;;;7.73;2.00;;;8.80;99.90;;;;;;5060463;28;20483;-67
2024/02/07 06:25:54;;;;;;;8.87;2.40;;;8.80;99.90;;;;;;5061129;28;20581;-68
2024/02/07 06:28:22;;;;;;;8.30;2.03;;;8.80;99.90;;;;;;5065856;28;20477;-67
2024/02/07 06:30:50;;;;;;;9.50;2.57;;;8.80;99.90;;;;;;5065419;28;21033;-67
2024/02/07 06:33:18;;;;;;;10.80;2.00;;;8.80;99.90;;;;;;5065334;28;20457;-68
2024/02/07 06:35:48;;;;;;;8.77;1.90;;;8.90;99.90;;;;;;5064609;28;20451;-68
2024/02/07 06:38:16;;;;;;;7.80;2.30;;;8.80;99.90;;;;;;5066169;28;20443;-68
2024/02/07 06:40:44;;;;;;;9.07;2.70;;;8.80;99.90;;;;;;5066337;28;20556;-68
2024/02/07 06:43:12;;;;;;;8.67;2.37;;;8.90;99.90;;;;;;5066361;28;21147;-66
2024/02/07 06:45:40;;;;;;;7.97;2.00;;;8.90;99.90;;;;;;5065704;28;20446;-68
2024/02/07 06:48:08;;;;;;;9.87;2.10;;;8.90;99.90;;;;;;5066242;28;20463;-68
2024/02/07 06:50:36;;;;;;;8.83;2.63;;;8.90;99.90;;;;;;5065862;28;20524;-67
2024/02/07 06:53:05;;;;;;;9.20;2.20;;;9.00;99.90;;;;;;5066921;28;20880;-68
2024/02/07 06:55:34;;;;;;;8.30;2.33;;;9.00;99.90;;;;;;5069844;28;20431;-67
2024/02/07 06:58:02;;;;;;;9.97;2.30;;;9.00;99.90;;;;;;5067175;28;20823;-68
2024/02/07 07:00:31;;;;;;;9.27;2.20;;;9.10;99.90;;;;;;5064252;28;20978;-68
2024/02/07 07:02:59;;;;;;;9.03;1.97;;;9.00;99.90;;;;;;5068445;28;20448;-68
2024/02/07 07:05:26;;;;;;;9.43;2.10;;;9.10;99.90;;;;;;5069756;28;20551;-68
2024/02/07 07:07:54;;;;;;;9.83;2.57;;;9.10;99.90;;;;;;5070353;28;21121;-67
2024/02/07 07:10:24;;;;;;;7.60;2.07;;;9.20;99.90;;;;;;5070272;28;20838;-68
2024/02/07 07:12:52;;;;;;;10.00;2.20;;;9.20;99.90;;;;;;5069783;28;20979;-68
2024/02/07 07:15:20;;;;;;;8.57;2.20;;;9.30;99.90;;;;;;5070107;28;20492;-67
2024/02/07 07:18:00;;;;;;;8.00;1.80;;;9.30;99.90;;;;;;5069720;28;20449;-68
2024/02/07 07:20:30;;;;;;;8.70;2.23;;;9.30;99.90;;;;;;5069053;28;20493;-66
2024/02/07 07:22:59;;;;;;;10.70;2.40;;;9.40;99.90;;;;;;5069914;28;20470;-68
2024/02/07 07:25:44;;;;;;;11.73;2.70;;;9.40;99.90;;;;;;5068454;28;20806;-68
2024/02/07 07:28:12;;;;;;;8.63;2.43;;;9.40;99.90;;;;;;5068413;28;20459;-68
2024/02/07 07:30:40;;;;;;;8.00;2.03;;;9.40;99.90;;;;;;5068248;28;20463;-68
2024/02/07 07:33:09;;;;;;;9.20;2.87;;;9.40;99.90;;;;;;5068975;28;20440;-68
2024/02/07 07:35:36;;;;;;;7.93;2.10;;;9.40;99.90;;;;;;5068889;28;20445;-67
2024/02/07 07:38:04;;;;;;;8.53;2.00;;;9.40;99.90;;;;;;5068522;28;20988;-67
2024/02/07 07:40:33;;;;;;;9.93;2.80;;;9.40;99.90;;;;;;5068236;28;20462;-67
2024/02/07 07:43:02;;;;;;;9.90;2.50;;;9.50;99.90;;;;;;5069513;28;20448;-68
2024/02/07 07:45:30;;;;;;;12.47;2.50;;;9.50;99.90;;;;;;5067940;28;20443;-67
2024/02/07 07:47:58;;;;;;;8.90;1.97;;;9.60;99.90;;;;;;5070013;28;20482;-68
2024/02/07 07:50:26;;;;;;;8.27;2.33;;;9.50;99.90;;;;;;5069610;28;20906;-68
2024/02/07 07:52:54;;;;;;;10.57;2.63;;;9.60;99.90;;;;;;5069539;28;20433;-68
2024/02/07 07:55:22;;;;;;;9.00;2.30;;;9.60;99.90;;;;;;5069174;28;20931;-68
2024/02/07 07:57:50;;;;;;;8.70;2.30;;;9.70;99.90;;;;;;5070080;28;20444;-68
2024/02/07 08:00:20;;;;;;;9.90;2.57;;;9.70;99.90;;;;;;5069477;28;20460;-69
2024/02/07 08:02:47;;;;;;;10.13;2.80;;;9.80;99.90;;;;;;5069495;28;20451;-68
2024/02/07 08:05:15;;;;;;;11.00;3.00;;;9.80;99.90;;;;;;5069389;28;20440;-68
2024/02/07 08:07:43;;;;;;;8.77;2.37;;;9.80;99.90;;;;;;5069542;28;20811;-68
2024/02/07 08:10:12;;;;;;;11.73;2.17;;;9.80;99.90;;;;;;5068983;28;20481;-68
2024/02/07 08:12:41;;;;;;;9.10;2.20;;;9.90;99.90;;;;;;5068474;28;21126;-67
2024/02/07 08:15:09;;;;;;;7.37;1.70;;;9.90;99.90;;;;;;5069029;28;20511;-68
2024/02/07 08:17:39;;;;;;;10.00;3.03;;;9.90;99.90;;;;;;5069489;28;20795;-68
2024/02/07 08:20:10;;;;;;;9.83;2.20;;;9.90;99.90;;;;;;5069518;28;20817;-68
2024/02/07 08:22:38;;;;;;;8.63;2.27;;;9.90;99.90;;;;;;5068739;28;20930;-68
2024/02/07 08:25:16;;;;;;;8.67;2.33;;;9.90;99.90;;;;;;5067635;28;20444;-68
2024/02/07 08:27:44;;;;;;;9.77;2.20;;;9.90;99.90;;;;;;5068520;28;20783;-68
2024/02/07 08:30:16;;;;;;;9.27;2.03;;;10.00;99.90;;;;;;5068077;28;20521;-70
2024/02/07 08:32:45;;;;;;;10.13;2.47;;;10.00;99.90;;;;;;5067520;28;20445;-68
2024/02/07 08:35:21;;;;;;;8.57;2.30;;;10.10;99.90;;;;;;5067180;28;20541;-68
2024/02/07 08:37:49;;;;;;;9.90;2.60;;;10.10;99.90;;;;;;5067597;28;20466;-68
2024/02/07 08:40:19;;;;;;;9.50;2.60;;;10.10;99.90;;;;;;5067886;28;20442;-68
2024/02/07 08:42:47;;;;;;;12.00;2.77;;;10.10;99.90;;;;;;5067224;28;21140;-68
2024/02/07 08:45:17;;;;;;;8.90;2.13;;;10.20;99.90;;;;;;5067000;28;20452;-69
2024/02/07 08:47:49;;;;;;;9.40;2.50;;;10.20;99.90;;;;;;5067172;28;20555;-68
2024/02/07 08:50:18;;;;;;;9.17;2.80;;;10.20;99.90;;;;;;5066209;28;20851;-69
2024/02/07 08:52:49;;;;;;;7.50;2.13;;;10.30;99.90;;;;;;5066485;28;20445;-68
2024/02/07 08:55:17;;;;;;;10.03;2.20;;;10.30;99.90;;;;;;5068004;28;20535;-68
2024/02/07 08:57:45;;;;;;;9.20;2.70;;;10.30;99.90;;;;;;5068466;28;20450;-68
2024/02/07 09:00:14;;;;;;;8.07;2.30;;;10.30;99.90;;;;;;5068317;28;20991;-69
2024/02/07 09:02:42;;;;;;;9.20;2.20;;;10.40;99.90;;;;;;5067814;28;20534;-69
2024/02/07 09:05:12;;;;;;;10.40;2.40;;;10.30;99.90;;;;;;5068040;28;20454;-68
2024/02/07 09:07:40;;;;;;;9.53;2.30;;;10.30;99.90;;;;;;5068384;28;20441;-68
2024/02/07 09:10:09;;;;;;;8.30;2.13;;;10.30;99.90;;;;;;5067074;28;20560;-67
2024/02/07 09:12:37;;;;;;;9.37;2.97;;;10.30;99.90;;;;;;5066934;28;20964;-69
2024/02/07 09:15:06;;;;;;;9.53;2.50;;;10.40;99.90;;;;;;5066030;28;20443;-68
2024/02/07 09:17:34;;;;;;;9.20;2.53;;;10.50;99.90;;;;;;5067038;28;20872;-69
2024/02/07 09:20:02;;;;;;;8.87;2.07;;;10.50;99.90;;;;;;5066587;28;21078;-67
2024/02/07 09:22:32;;;;;;;11.60;2.27;;;10.60;99.90;;;;;;5066059;28;20512;-68
2024/02/07 09:25:00;;;;;;;7.17;1.80;;;10.60;99.90;;;;;;5066453;28;20458;-68
2024/02/07 09:27:28;;;;;;;9.47;2.30;;;10.70;99.90;;;;;;5065533;28;20450;-68
2024/02/07 09:29:58;;;;;;;9.00;2.70;;;10.80;99.90;;;;;;5064968;28;20472;-68
2024/02/07 09:32:40;;;;;;;11.87;2.47;;;10.80;99.90;;;;;;5064118;28;20441;-69
2024/02/07 09:35:08;;;;;;;8.30;2.10;;;10.80;99.90;;;;;;5065759;28;20508;-68
2024/02/07 09:37:41;;;;;;;9.53;2.33;;;10.80;99.90;;;;;;5065369;28;20443;-68
2024/02/07 09:40:10;;;;;;;8.47;2.10;;;10.80;99.90;;;;;;5066639;28;20435;-68
2024/02/07 09:42:44;;;;;;;9.13;2.17;;;10.80;99.90;;;;;;5063190;28;20841;-68
2024/02/07 09:45:13;;;;;;;8.40;2.20;;;10.80;99.90;;;;;;5065473;28;20533;-69
2024/02/07 09:47:49;;;;;;;7.60;2.10;;;10.70;99.90;;;;;;5066260;28;20850;-68
2024/02/07 09:50:18;;;;;;;8.40;2.20;;;10.70;99.90;;;;;;5063778;28;20570;-68
2024/02/07 09:52:48;;;;;;;8.27;2.07;;;10.70;99.90;;;;;;5061992;28;20971;-69
2024/02/07 09:55:17;;;;;;;11.20;3.53;;;10.80;99.90;;;;;;5059391;28;20848;-68
2024/02/07 09:57:46;;;;;;;10.53;2.70;;;10.90;99.90;;;;;;5064407;28;20964;-68
2024/02/07 10:00:14;;;;;;;7.50;1.93;;;10.90;99.90;;;;;;5064269;28;20438;-69
2024/02/07 10:02:48;;;;;;;7.80;1.90;;;10.90;99.90;;;;;;5063409;28;20447;-69
2024/02/07 10:05:19;;;;;;;7.80;2.20;;;10.90;99.90;;;;;;5064032;28;20522;-69
2024/02/07 10:07:52;;;;;;;8.30;2.50;;;11.00;99.90;;;;;;5063984;28;21007;-68
2024/02/07 10:10:21;;;;;;;9.23;2.20;;;11.00;99.90;;;;;;5065929;28;20539;-68
2024/02/07 10:12:54;;;;;;;8.97;2.30;;;11.20;99.90;;;;;;5066104;28;20450;-69
2024/02/07 10:15:24;;;;;;;9.70;2.53;;;11.20;99.90;;;;;;5066469;28;20432;-69
2024/02/07 10:17:52;;;;;;;9.07;2.00;;;11.40;99.90;;;;;;5066816;28;20883;-69
2024/02/07 10:20:20;;;;;;;12.63;2.70;;;11.50;99.90;;;;;;5064867;28;20786;-67
2024/02/07 10:22:50;;;;;;;9.00;2.87;;;11.70;99.90;;;;;;5065289;28;21152;-67
2024/02/07 10:25:18;;;;;;;11.30;2.37;;;11.90;99.90;;;;;;5063121;28;20439;-69
2024/02/07 10:27:46;;;;;;;9.07;1.80;;;11.90;99.90;;;;;;5065931;28;21043;-66
2024/02/07 10:30:14;;;;;;;7.47;1.70;;;11.90;99.90;;;;;;5065509;28;20906;-68
2024/02/07 10:32:45;;;;;;;7.33;2.03;;;11.90;99.90;;;;;;5065586;28;20480;-68
2024/02/07 10:35:17;;;;;;;8.10;1.83;;;11.80;99.90;;;;;;5061051;28;20542;-68
2024/02/07 10:37:52;;;;;;;9.00;2.27;;;11.60;99.90;;;;;;5065638;28;20890;-68
2024/02/07 10:40:21;;;;;;;7.20;1.43;;;11.50;99.90;;;;;;5065644;28;20976;-68
2024/02/07 10:42:59;;;;;;;7.90;2.03;;;11.50;99.90;;;;;;5062597;28;20438;-68
2024/02/07 10:45:27;;;;;;;8.17;1.80;;;11.50;99.90;;;;;;5065198;28;20463;-69
2024/02/07 10:47:57;;;;;;;10.20;1.80;;;11.50;99.90;;;;;;5064830;28;20449;-68
2024/02/07 10:50:27;;;;;;;6.80;1.63;;;11.50;99.90;;;;;;5066442;28;20536;-68
2024/02/07 10:52:59;;;;;;;7.80;1.80;;;11.50;99.90;;;;;;5066934;28;20529;-68
2024/02/07 10:55:27;;;;;;;10.00;1.53;;;11.50;99.90;;;;;;5066013;28;20457;-68
2024/02/07 10:58:01;;;;;;;7.13;1.83;;;11.50;99.90;;;;;;5066394;28;20447;-68
2024/02/07 11:00:29;;;;;;;9.20;2.00;;;11.50;99.90;;;;;;5065537;28;20430;-66
2024/02/07 11:03:02;;;;;;;8.20;1.43;;;11.50;99.90;;;;;;5066197;28;20968;-67
2024/02/07 11:05:30;;;;;;;7.70;1.47;;;11.50;99.90;;;;;;5063860;28;20500;-68
2024/02/07 11:08:00;;;;;;;8.10;1.60;;;11.60;99.90;;;;;;5066228;28;20435;-68
2024/02/07 11:10:34;;;;;;;6.97;1.60;;;11.70;99.90;;;;;;5063646;28;20490;-68
2024/02/07 11:13:05;;;;;;;6.87;1.40;;;11.70;99.90;;;;;;5066173;28;21142;-68
2024/02/07 11:15:34;;;;;;;8.17;1.80;;;11.70;99.90;;;;;;5069353;28;20467;-68
2024/02/07 11:18:03;;;;;;;7.00;1.63;;;11.70;99.90;;;;;;5070031;28;20447;-68
2024/02/07 11:20:36;;;;;;;9.03;1.57;;;11.90;99.90;;;;;;5069216;28;20462;-69
2024/02/07 11:23:16;;;;;;;8.90;1.40;;;11.90;99.90;;;;;;5068859;28;20524;-69
2024/02/07 11:25:46;;;;;;;7.63;1.37;;;12.10;99.90;;;;;;5068398;28;20444;-67
2024/02/07 11:28:14;;;;;;;8.27;1.40;;;12.10;99.90;;;;;;5066039;28;20482;-66
2024/02/07 11:30:44;;;;;;;6.80;1.50;;;12.00;99.90;;;;;;5066813;28;20515;-68
2024/02/07 11:33:12;;;;;;;7.23;1.60;;;12.00;99.90;;;;;;5067072;28;20908;-68
2024/02/07 11:35:40;;;;;;;7.43;1.70;;;12.00;99.90;;;;;;5067873;28;20824;-68
2024/02/07 11:38:10;;;;;;;8.53;1.50;;;12.00;99.90;;;;;;5068025;28;20443;-68
2024/02/07 11:40:40;;;;;;;7.40;1.80;;;11.90;99.90;;;;;;5060778;28;20465;-69
2024/02/07 11:43:10;;;;;;;7.20;1.60;;;12.00;99.90;;;;;;5068524;28;20440;-68
2024/02/07 11:45:38;;;;;;;6.77;1.30;;;12.00;99.90;;;;;;5068187;28;20440;-73
2024/02/07 11:48:18;;;;;;;6.47;1.23;;;12.00;99.90;;;;;;5068914;28;20445;-69
2024/02/07 11:50:49;;;;;;;7.20;1.43;;;12.00;99.90;;;;;;5066336;28;20887;-68
2024/02/07 11:53:25;;;;;;;8.37;1.30;;;12.00;99.90;;;;;;5062179;28;20527;-67
2024/02/07 11:55:53;;;;;;;7.20;1.60;;;12.10;99.90;;;;;;5073110;28;20513;-68
2024/02/07 11:58:22;;;;;;;7.13;1.50;;;12.00;99.90;;;;;;5064610;28;21149;-67
2024/02/07 12:00:51;;;;;;;7.43;1.20;;;12.00;99.90;;;;;;5063964;28;20463;-67
2024/02/07 12:03:19;;;;;;;7.47;1.53;;;12.00;99.90;;;;;;5067583;28;20444;-67
2024/02/07 12:05:47;;;;;;;7.83;1.50;;;12.10;99.90;;;;;;5064639;28;20452;-67
2024/02/07 12:08:15;;;;;;;7.10;1.03;;;12.30;99.90;;;;;;5067571;28;20458;-68
2024/02/07 12:10:45;;;;;;;7.00;0.97;;;12.50;99.90;;;;;;5067174;28;20447;-68
2024/02/07 12:13:13;;;;;;;7.43;1.40;;;12.40;99.90;;;;;;5065617;28;20449;-68
2024/02/07 12:15:41;;;;;;;6.73;1.17;;;12.50;99.90;;;;;;5068066;28;20442;-66
2024/02/07 12:18:09;;;;;;;6.17;1.00;;;12.60;99.90;;;;;;5068352;28;20886;-67
2024/02/07 12:20:37;;;;;;;7.13;1.00;;;12.70;99.90;;;;;;5067314;28;20473;-68
2024/02/07 12:23:06;;;;;;;6.90;1.23;;;12.60;99.90;;;;;;5066129;28;20864;-68
2024/02/07 12:25:34;;;;;;;6.20;1.00;;;12.60;99.90;;;;;;5064383;28;20446;-68
2024/02/07 12:28:17;;;;;;;6.47;1.03;;;12.50;99.80;;;;;;5064485;28;20823;-68
2024/02/07 12:30:45;;;;;;;7.30;1.13;;;12.40;99.90;;;;;;5063612;28;20452;-68
2024/02/07 12:33:13;;;;;;;11.33;3.20;;;12.20;99.70;;;;;;5066073;28;20481;-67
2024/02/07 12:35:49;;;;;;;7.37;1.10;;;12.10;99.90;;;;;;5065737;28;20443;-67
2024/02/07 12:38:17;;;;;;;6.40;1.00;;;12.10;99.90;;;;;;5061716;28;20531;-66
2024/02/07 12:40:47;;;;;;;8.00;1.83;;;12.20;99.90;;;;;;5064387;28;20467;-67
2024/02/07 12:43:17;;;;;;;6.47;0.80;;;12.30;99.90;;;;;;5064367;28;20473;-66
2024/02/07 12:45:56;;;;;;;6.90;0.90;;;12.20;99.90;;;;;;5066332;28;20457;-67
2024/02/07 12:48:25;;;;;;;6.67;0.83;;;12.20;99.90;;;;;;5073607;28;20430;-67
2024/02/07 12:50:54;;;;;;;6.90;1.00;;;12.10;99.90;;;;;;5069142;28;20455;-67
2024/02/07 12:53:22;;;;;;;6.97;0.90;;;12.00;99.90;;;;;;5064201;28;20625;-67
2024/02/07 12:55:52;;;;;;;6.77;0.90;;;12.00;99.90;;;;;;5066435;28;20929;-67
2024/02/07 12:58:22;;;;;;;6.30;0.90;;;12.00;99.90;;;;;;5065695;28;20459;-67
2024/02/07 13:01:00;;;;;;;6.10;0.67;;;12.10;99.90;;;;;;5061861;28;21523;-67
2024/02/07 13:03:36;;;;;;;6.90;1.00;;;12.20;99.90;;;;;;5068969;28;20447;-68
2024/02/07 13:06:07;;;;;;;7.23;1.20;;;12.20;99.90;;;;;;5068495;28;20446;-66
2024/02/07 13:08:35;;;;;;;5.93;0.70;;;12.20;99.90;;;;;;5072548;28;20447;-68
2024/02/07 13:11:03;;;;;;;6.70;1.13;;;12.10;99.90;;;;;;5090338;28;20455;-67
2024/02/07 13:13:32;;;;;;;7.50;0.87;;;11.90;99.90;;;;;;5084881;28;20536;-67
2024/02/07 13:16:00;;;;;;;6.73;0.90;;;11.90;99.90;;;;;;5076988;28;20486;-68
2024/02/07 13:18:29;;;;;;;6.80;0.80;;;11.90;99.90;;;;;;5077562;28;20449;-67
2024/02/07 13:21:01;;;;;;;7.13;2.10;;;11.90;99.90;;;;;;5076981;28;20519;-68
2024/02/07 13:23:33;;;;;;;6.67;1.00;;;11.80;99.90;;;;;;5076741;28;20493;-68
2024/02/07 13:26:04;;;;;;;6.50;0.97;;;11.70;99.90;;;;;;5082491;28;20446;-70
2024/02/07 13:28:36;;;;;;;6.20;1.10;;;11.60;99.90;;;;;;5088599;28;20470;-71
2024/02/07 13:31:04;;;;;;;7.37;1.10;;;11.50;99.90;;;;;;5093174;28;20458;-69
2024/02/07 13:33:32;;;;;;;6.37;0.93;;;11.50;99.90;;;;;;5089107;28;20475;-68
2024/02/07 13:36:00;;;;;;;6.53;1.00;;;11.60;99.90;;;;;;5088118;28;20450;-68
2024/02/07 13:38:28;;;;;;;6.97;1.30;;;11.50;99.90;;;;;;5088128;28;20871;-69
2024/02/07 13:41:04;;;;;;;6.20;0.90;;;11.60;99.90;;;;;;5082894;28;20467;-68
2024/02/07 13:43:34;;;;;;;6.10;0.80;;;11.40;99.90;;;;;;5086964;28;20469;-68
2024/02/07 13:46:02;;;;;;;6.40;1.10;;;11.40;99.90;;;;;;5089109;28;20468;-68
2024/02/07 13:48:30;;;;;;;6.67;1.13;;;11.40;99.90;;;;;;5087645;28;20447;-69
2024/02/07 13:50:59;;;;;;;7.10;0.97;;;11.50;99.90;;;;;;5072369;28;20463;-70
2024/02/07 13:53:28;;;;;;;8.17;1.17;;;11.60;99.90;;;;;;5078333;28;20569;-69
2024/02/07 13:55:57;;;;;;;6.20;0.80;;;11.60;99.90;;;;;;5080420;28;20517;-69
2024/02/07 13:58:25;;;;;;;6.60;1.00;;;11.50;99.90;;;;;;5091666;28;20436;-69
2024/02/07 14:00:55;;;;;;;6.20;0.80;;;11.50;99.90;;;;;;5084126;28;20470;-69
2024/02/07 14:03:23;;;;;;;7.40;1.00;;;11.60;99.90;;;;;;5083669;28;20502;-69
2024/02/07 14:05:53;;;;;;;6.43;0.80;;;11.60;99.90;;;;;;5089674;28;20439;-69